Time;durP1;ratioP1;P1;durP2;ratioP2;P2;SDS_P1;SDS_P2;PMS_P1;PMS_P2;Temp;Humidity;BMP_temperature;BMP_pressure;BME280_temperature;BME280_humidity;BME280_pressure;Samples;Min_cycle;Max_cycle;Signal;HPM_P1;HPM_P2
2022/04/24 00:00:26;;;;;;;14.50;9.00;;;;;;;6.96;87.11;98997.94;4200979;28;21975;-68
2022/04/24 00:02:52;;;;;;;13.70;8.93;;;;;;;6.99;87.08;98999.44;4193295;28;20271;-68
2022/04/24 00:05:19;;;;;;;16.30;9.63;;;;;;;7.00;87.00;98995.81;4199342;28;20470;-66
2022/04/24 00:07:45;;;;;;;16.57;9.33;;;;;;;6.91;86.76;98996.75;4194020;28;22344;-67
2022/04/24 00:10:12;;;;;;;14.30;9.80;;;;;;;6.90;87.14;98997.72;4200243;28;22609;-68
2022/04/24 00:12:39;;;;;;;18.83;9.43;;;;;;;6.84;87.16;98988.63;4197102;28;20229;-67
2022/04/24 00:15:06;;;;;;;13.90;8.90;;;;;;;6.93;86.84;98984.19;4202516;28;20232;-68
2022/04/24 00:17:32;;;;;;;14.33;9.07;;;;;;;6.91;87.17;98988.81;4205209;28;20275;-69
2022/04/24 00:19:59;;;;;;;16.80;9.97;;;;;;;6.63;87.97;98981.06;4197526;28;20272;-69
2022/04/24 00:22:26;;;;;;;16.47;10.33;;;;;;;6.54;88.87;98984.63;4191862;28;21495;-67
2022/04/24 00:24:52;;;;;;;18.80;10.90;;;;;;;6.36;89.99;98971.44;4184803;28;20689;-68
2022/04/24 00:27:19;;;;;;;18.07;11.30;;;;;;;6.17;91.35;98969.81;4191074;28;20343;-69
2022/04/24 00:29:45;;;;;;;20.13;12.33;;;;;;;5.86;92.72;98966.72;4203123;28;20232;-70
2022/04/24 00:32:12;;;;;;;24.00;13.20;;;;;;;5.71;93.37;98961.97;4211694;28;20282;-67
2022/04/24 00:34:38;;;;;;;21.87;13.03;;;;;;;5.68;93.86;98964.06;4206753;28;21788;-68
2022/04/24 00:37:06;;;;;;;22.53;13.70;;;;;;;5.60;94.50;98969.28;4212505;28;20226;-67
2022/04/24 00:39:33;;;;;;;25.33;15.27;;;;;;;5.41;96.04;98978.97;4185841;28;20412;-66
2022/04/24 00:42:00;;;;;;;27.27;15.13;;;;;;;5.21;97.71;98977.41;4186042;28;20259;-67
2022/04/24 00:44:27;;;;;;;28.03;16.93;;;;;;;5.15;98.27;98984.13;4207504;28;20260;-66
2022/04/24 00:47:01;;;;;;;30.90;17.53;;;;;;;5.13;98.30;98987.84;4203448;28;20228;-68
2022/04/24 00:49:28;;;;;;;29.67;16.33;;;;;;;5.15;98.67;98988.53;4195155;28;20235;-68
2022/04/24 00:51:56;;;;;;;29.23;16.40;;;;;;;5.25;97.81;98994.63;4197583;28;20242;-66
2022/04/24 00:54:23;;;;;;;29.63;17.23;;;;;;;5.41;97.73;98986.06;4234089;28;21812;-69
2022/04/24 00:56:49;;;;;;;36.17;20.80;;;;;;;5.53;95.54;98989.31;4175906;28;20240;-67
2022/04/24 00:59:16;;;;;;;44.23;23.73;;;;;;;5.34;96.84;98992.88;4176081;28;20244;-68
2022/04/24 01:01:43;;;;;;;49.90;26.77;;;;;;;5.28;97.96;98981.13;4191578;28;20311;-69
2022/04/24 01:04:11;;;;;;;55.97;29.10;;;;;;;5.20;98.63;98988.94;4191006;28;20246;-67
2022/04/24 01:06:40;;;;;;;54.87;29.73;;;;;;;5.19;99.40;98985.47;4207830;28;20240;-67
2022/04/24 01:09:18;;;;;;;64.23;32.83;;;;;;;5.01;100.00;98981.94;4226161;28;20286;-68
2022/04/24 01:11:48;;;;;;;60.23;33.33;;;;;;;4.98;100.00;98983.06;4217248;28;20400;-68
2022/04/24 01:14:18;;;;;;;61.27;31.93;;;;;;;5.25;100.00;98981.44;4187469;28;21152;-69
2022/04/24 01:16:46;;;;;;;60.37;31.83;;;;;;;5.24;99.11;98982.38;4192518;28;20473;-68
2022/04/24 01:19:13;;;;;;;59.97;31.20;;;;;;;5.04;100.00;98987.75;4190499;28;20242;-68
2022/04/24 01:21:43;;;;;;;60.93;30.97;;;;;;;4.98;100.00;98992.78;4190186;28;20225;-69
2022/04/24 01:24:11;;;;;;;58.10;30.83;;;;;;;5.00;100.00;98986.38;4188684;28;20678;-68
2022/04/24 01:26:38;;;;;;;63.13;30.17;;;;;;;4.90;100.00;98990.88;4193334;28;20334;-67
2022/04/24 01:29:05;;;;;;;56.23;30.57;;;;;;;4.89;100.00;98978.66;4184628;28;20647;-69
2022/04/24 01:31:32;;;;;;;57.47;30.33;;;;;;;5.03;100.00;98978.19;4189527;28;20638;-68
2022/04/24 01:33:59;;;;;;;53.03;27.33;;;;;;;5.00;100.00;98975.84;4194470;28;20248;-68
2022/04/24 01:36:26;;;;;;;56.17;28.40;;;;;;;4.92;100.00;98978.38;4186313;28;20237;-68
2022/04/24 01:38:53;;;;;;;55.40;28.20;;;;;;;4.91;100.00;98971.44;4189132;28;21889;-68
2022/04/24 01:41:19;;;;;;;55.67;27.60;;;;;;;4.92;100.00;98967.84;4190581;28;20244;-68
2022/04/24 01:43:47;;;;;;;55.30;27.47;;;;;;;4.81;100.00;98971.47;4205862;28;20280;-69
2022/04/24 01:46:13;;;;;;;47.27;25.10;;;;;;;4.90;100.00;98971.59;4197468;28;25545;-66
2022/04/24 01:48:40;;;;;;;53.63;26.60;;;;;;;4.81;100.00;98962.75;4182301;28;20270;-69
2022/04/24 01:51:08;;;;;;;49.20;25.67;;;;;;;4.90;100.00;98969.78;4177995;28;22224;-66
2022/04/24 01:53:35;;;;;;;54.83;27.97;;;;;;;4.85;100.00;98970.22;4189751;28;20244;-68
2022/04/24 01:56:04;;;;;;;47.10;25.37;;;;;;;4.84;100.00;98973.81;4190418;28;20293;-67
2022/04/24 01:58:31;;;;;;;45.37;24.50;;;;;;;4.93;100.00;98973.94;4205100;28;20249;-69
2022/04/24 02:00:58;;;;;;;46.67;24.50;;;;;;;4.93;100.00;98971.31;4190862;28;20237;-67
2022/04/24 02:03:26;;;;;;;49.57;25.03;;;;;;;5.01;100.00;98979.28;4192250;28;20299;-69
2022/04/24 02:05:53;;;;;;;46.10;23.97;;;;;;;5.18;99.93;98978.53;4207648;28;20233;-68
2022/04/24 02:08:20;;;;;;;42.50;23.50;;;;;;;5.29;99.18;98974.84;4179923;28;20311;-67
2022/04/24 02:10:46;;;;;;;42.10;22.03;;;;;;;5.27;98.48;98979.47;4192356;28;20229;-66
2022/04/24 02:13:13;;;;;;;39.20;22.13;;;;;;;5.30;98.94;98981.81;4190701;28;20337;-69
2022/04/24 02:15:40;;;;;;;41.87;22.47;;;;;;;5.30;97.90;98984.44;4182145;28;20252;-67
2022/04/24 02:18:06;;;;;;;35.47;21.30;;;;;;;5.34;97.66;98984.97;4185611;28;20233;-68
2022/04/24 02:20:33;;;;;;;40.07;21.43;;;;;;;5.27;97.80;98987.38;4193686;28;20226;-69
2022/04/24 02:23:01;;;;;;;40.00;21.17;;;;;;;5.19;98.70;98988.09;4191645;28;20237;-69
2022/04/24 02:25:28;;;;;;;45.97;21.67;;;;;;;4.99;98.97;98986.53;4186401;28;20545;-68
2022/04/24 02:27:56;;;;;;;39.67;20.03;;;;;;;5.07;99.63;98982.19;4174166;28;20240;-69
2022/04/24 02:30:24;;;;;;;41.30;20.57;;;;;;;4.95;99.95;98980.72;4184310;28;20753;-70
2022/04/24 02:32:51;;;;;;;43.43;20.43;;;;;;;4.93;100.00;98990.56;4187084;28;20281;-69
2022/04/24 02:35:18;;;;;;;35.33;19.83;;;;;;;4.91;99.92;98992.53;4191176;28;20913;-68
2022/04/24 02:37:44;;;;;;;37.23;19.90;;;;;;;4.87;100.00;98991.16;4187286;28;21757;-66
2022/04/24 02:40:11;;;;;;;35.17;19.30;;;;;;;4.82;100.00;98988.97;4194240;28;20239;-68
2022/04/24 02:42:38;;;;;;;34.97;18.77;;;;;;;4.79;100.00;98993.69;4190023;28;21188;-68
2022/04/24 02:45:08;;;;;;;34.30;18.33;;;;;;;5.02;99.98;98986.25;4194376;28;20237;-69
2022/04/24 02:47:38;;;;;;;37.90;18.30;;;;;;;5.04;98.40;98985.13;4186255;28;20237;-68
2022/04/24 02:50:05;;;;;;;32.10;17.60;;;;;;;5.10;97.97;98990.78;4223332;28;20238;-68
2022/04/24 02:52:32;;;;;;;34.87;17.43;;;;;;;4.93;97.80;98985.31;4183645;28;20234;-68
2022/04/24 02:54:58;;;;;;;34.93;18.20;;;;;;;4.91;98.98;98986.44;4212828;28;22522;-67
2022/04/24 02:57:28;;;;;;;32.50;17.50;;;;;;;4.87;99.11;98988.53;4185586;28;20251;-68
2022/04/24 02:59:55;;;;;;;39.53;18.87;;;;;;;4.90;99.17;98985.59;4181227;28;20311;-69
2022/04/24 03:02:22;;;;;;;39.30;19.83;;;;;;;4.74;99.48;98988.84;4186487;28;20310;-69
2022/04/24 03:04:49;;;;;;;36.67;19.20;;;;;;;4.75;99.75;98977.34;4184996;28;24126;-68
2022/04/24 03:07:15;;;;;;;38.20;19.50;;;;;;;4.70;100.00;98981.38;4194041;28;20243;-68
2022/04/24 03:09:42;;;;;;;38.87;19.53;;;;;;;4.70;100.00;98973.47;4185714;28;20236;-67
2022/04/24 03:12:09;;;;;;;35.17;19.10;;;;;;;4.61;100.00;98975.13;4198545;28;21826;-69
2022/04/24 03:14:35;;;;;;;35.63;19.53;;;;;;;4.65;99.78;98972.06;4194130;28;20431;-69
2022/04/24 03:17:02;;;;;;;32.13;18.60;;;;;;;4.77;100.00;98967.47;4177138;28;21872;-68
2022/04/24 03:19:29;;;;;;;31.53;17.13;;;;;;;4.74;100.00;98969.56;4179347;28;21689;-67
2022/04/24 03:21:56;;;;;;;32.73;17.87;;;;;;;4.84;100.00;98970.34;4191747;28;20682;-68
2022/04/24 03:24:22;;;;;;;30.23;16.20;;;;;;;4.98;99.44;98963.78;4185282;28;20236;-68
2022/04/24 03:26:49;;;;;;;30.53;15.87;;;;;;;5.10;97.65;98965.25;4185996;28;20244;-69
2022/04/24 03:29:15;;;;;;;28.63;15.50;;;;;;;5.06;97.86;98964.72;4185010;28;20603;-69
2022/04/24 03:31:42;;;;;;;26.23;15.20;;;;;;;5.06;97.58;98972.63;4187088;28;20324;-68
2022/04/24 03:34:08;;;;;;;32.90;15.60;;;;;;;5.00;98.23;98975.84;4184066;28;20693;-67
2022/04/24 03:36:35;;;;;;;27.67;14.50;;;;;;;5.05;98.62;98978.88;4186957;28;21119;-67
2022/04/24 03:39:01;;;;;;;27.20;14.47;;;;;;;4.98;98.47;98977.78;4185404;28;20280;-68
2022/04/24 03:41:28;;;;;;;48.93;16.27;;;;;;;4.73;99.19;98976.66;4181580;28;20350;-70
2022/04/24 03:43:54;;;;;;;31.50;16.07;;;;;;;4.59;100.00;98977.94;4182029;28;20351;-69
2022/04/24 03:46:22;;;;;;;29.90;16.00;;;;;;;4.65;100.00;98979.16;4189106;28;20272;-67
2022/04/24 03:48:49;;;;;;;34.93;15.97;;;;;;;4.70;100.00;98978.72;4202356;28;21531;-69
2022/04/24 03:51:16;;;;;;;29.13;15.23;;;;;;;4.89;99.71;98983.91;4249981;28;21215;-69
2022/04/24 03:53:42;;;;;;;27.43;15.23;;;;;;;5.12;98.36;98983.56;4194920;28;20698;-67
2022/04/24 03:56:09;;;;;;;28.17;15.13;;;;;;;5.20;96.24;98981.03;4220312;28;20248;-67
2022/04/24 03:58:35;;;;;;;31.90;15.73;;;;;;;5.22;95.51;98986.97;4185169;28;20241;-68
2022/04/24 04:01:02;;;;;;;31.67;15.70;;;;;;;4.98;95.13;98983.06;4207405;28;21507;-69
2022/04/24 04:03:28;;;;;;;30.00;16.07;;;;;;;4.74;96.58;98980.09;4211032;28;23712;-69
2022/04/24 04:05:58;;;;;;;39.40;17.07;;;;;;;4.47;97.76;98973.78;4194090;28;21813;-68
2022/04/24 04:08:25;;;;;;;31.73;16.67;;;;;;;4.48;99.17;98979.91;4239448;28;20362;-70
2022/04/24 04:10:51;;;;;;;32.37;16.10;;;;;;;4.59;98.74;98982.38;4201328;28;22995;-69
2022/04/24 04:13:18;;;;;;;32.43;17.43;;;;;;;4.61;98.21;98975.13;4177938;28;20745;-70
2022/04/24 04:15:44;;;;;;;30.43;16.50;;;;;;;4.63;98.32;98974.00;4200582;28;20289;-70
2022/04/24 04:18:11;;;;;;;31.23;16.60;;;;;;;4.75;98.09;98981.75;4209281;28;21615;-69
2022/04/24 04:20:38;;;;;;;32.57;16.47;;;;;;;4.65;97.62;98968.63;4195106;28;20228;-67
2022/04/24 04:23:04;;;;;;;32.90;17.70;;;;;;;4.52;98.74;98973.34;4210592;28;20257;-69
2022/04/24 04:25:31;;;;;;;35.43;17.37;;;;;;;4.69;98.62;98971.81;4190203;28;20295;-66
2022/04/24 04:27:58;;;;;;;29.33;16.40;;;;;;;4.84;96.96;98987.00;4204045;28;20378;-68
2022/04/24 04:30:24;;;;;;;32.87;16.43;;;;;;;4.86;97.04;98984.22;4196764;28;20347;-68
2022/04/24 04:32:51;;;;;;;31.70;16.40;;;;;;;4.95;96.55;98983.34;4192194;28;23731;-67
2022/04/24 04:35:22;;;;;;;36.10;17.00;;;;;;;4.68;96.02;98991.22;4201780;28;20227;-69
2022/04/24 04:37:49;;;;;;;30.13;16.37;;;;;;;4.42;97.58;98995.31;4208163;28;21224;-66
2022/04/24 04:40:18;;;;;;;35.77;17.13;;;;;;;4.40;97.73;98988.50;4185446;28;20234;-69
2022/04/24 04:42:45;;;;;;;29.70;16.70;;;;;;;4.38;98.03;98980.75;4174416;28;20292;-67
2022/04/24 04:45:12;;;;;;;36.97;18.27;;;;;;;4.23;98.95;98982.16;4193384;28;21596;-66
2022/04/24 04:47:38;;;;;;;32.13;17.73;;;;;;;4.38;98.44;98972.03;4182902;28;20235;-67
2022/04/24 04:50:05;;;;;;;33.23;17.07;;;;;;;4.32;98.78;98977.84;4214304;28;20398;-67
2022/04/24 04:52:33;;;;;;;39.73;18.33;;;;;;;4.25;99.71;98974.13;4182168;28;20278;-66
2022/04/24 04:54:59;;;;;;;33.67;17.20;;;;;;;4.23;100.00;98977.69;4187206;28;20234;-69
2022/04/24 04:57:26;;;;;;;32.10;17.60;;;;;;;4.37;99.80;98979.06;4184478;28;20233;-67
2022/04/24 04:59:53;;;;;;;33.63;17.93;;;;;;;4.36;100.00;98976.59;4187123;28;20228;-67
2022/04/24 05:02:19;;;;;;;31.37;16.53;;;;;;;4.59;100.00;98977.13;4208525;28;20229;-67
2022/04/24 05:04:46;;;;;;;38.30;16.77;;;;;;;4.55;99.13;98987.09;4171179;28;20304;-66
2022/04/24 05:07:13;;;;;;;27.13;15.70;;;;;;;4.75;98.65;98979.13;4183543;28;20232;-67
2022/04/24 05:09:39;;;;;;;31.87;15.33;;;;;;;4.86;98.80;98984.22;4187088;28;20278;-67
2022/04/24 05:12:07;;;;;;;30.90;15.47;;;;;;;5.04;97.09;98986.94;4184785;28;20241;-66
2022/04/24 05:14:33;;;;;;;29.57;16.03;;;;;;;5.04;95.92;98989.56;4200236;28;20284;-66
2022/04/24 05:17:00;;;;;;;27.57;14.93;;;;;;;5.03;96.86;98986.13;4191017;28;20241;-68
2022/04/24 05:19:27;;;;;;;28.17;15.93;;;;;;;5.19;95.75;98985.47;4187537;28;20327;-65
2022/04/24 05:21:53;;;;;;;30.27;15.07;;;;;;;5.07;96.29;98981.38;4189463;28;20235;-65
2022/04/24 05:24:20;;;;;;;23.90;13.93;;;;;;;5.33;96.32;98981.50;4187103;28;20319;-67
2022/04/24 05:26:47;;;;;;;27.13;13.50;;;;;;;5.50;95.54;98977.22;4182536;28;20245;-67
2022/04/24 05:29:14;;;;;;;27.20;13.77;;;;;;;5.63;95.43;98982.16;4212326;28;20284;-68
2022/04/24 05:31:41;;;;;;;23.23;13.90;;;;;;;5.65;95.35;98988.13;4185107;28;20298;-69
2022/04/24 05:34:08;;;;;;;29.37;13.97;;;;;;;5.55;96.28;98984.72;4189616;28;22540;-68
2022/04/24 05:36:34;;;;;;;23.77;13.20;;;;;;;5.79;94.98;98990.25;4173262;28;20240;-68
2022/04/24 05:39:01;;;;;;;26.13;12.77;;;;;;;6.07;94.52;98980.47;4204583;28;22289;-68
2022/04/24 05:41:28;;;;;;;29.03;13.90;;;;;;;6.12;92.93;98982.66;4181990;28;20444;-68
2022/04/24 05:43:54;;;;;;;20.27;12.17;;;;;;;6.16;92.67;98988.44;4183570;28;20232;-66
2022/04/24 05:46:21;;;;;;;26.70;14.90;;;;;;;6.44;92.53;99005.00;4194405;28;20978;-66
2022/04/24 05:48:48;;;;;;;24.53;12.80;;;;;;;6.62;91.24;99008.47;4181011;28;20253;-67
2022/04/24 05:51:14;;;;;;;27.50;13.87;;;;;;;6.67;90.54;99014.13;4179773;28;20237;-68
2022/04/24 05:53:41;;;;;;;23.33;12.83;;;;;;;6.72;90.34;99017.13;4221903;28;20229;-67
2022/04/24 05:56:07;;;;;;;23.10;13.10;;;;;;;6.74;90.18;99015.16;4189344;28;20248;-68
2022/04/24 05:58:34;;;;;;;24.43;13.47;;;;;;;6.77;90.02;99021.97;4188961;28;21540;-68
2022/04/24 06:01:01;;;;;;;24.37;12.83;;;;;;;6.92;89.69;99020.38;4182766;28;20335;-69
2022/04/24 06:03:27;;;;;;;23.67;12.20;;;;;;;6.91;89.19;99023.19;4190656;28;25891;-67
2022/04/24 06:05:54;;;;;;;25.87;12.87;;;;;;;7.07;89.10;99017.16;4179784;28;20262;-67
2022/04/24 06:08:22;;;;;;;25.03;12.90;;;;;;;6.97;89.09;99019.91;4191075;28;23206;-67
2022/04/24 06:10:49;;;;;;;20.33;12.80;;;;;;;6.78;90.39;99014.84;4176818;28;23006;-67
2022/04/24 06:13:16;;;;;;;23.83;13.17;;;;;;;7.57;88.97;99022.50;4175485;28;20271;-68
2022/04/24 06:15:42;;;;;;;23.10;12.00;;;;;;;8.64;83.59;99026.13;4191237;28;26258;-65
2022/04/24 06:18:09;;;;;;;20.37;11.27;;;;;;;9.68;78.27;99034.13;4198969;28;20241;-66
2022/04/24 06:20:36;;;;;;;16.40;9.93;;;;;;;11.31;71.06;99042.63;4198429;28;26433;-65
2022/04/24 06:23:02;;;;;;;17.33;9.13;;;;;;;11.37;68.17;99036.56;4188483;28;20241;-66
2022/04/24 06:25:33;;;;;;;21.77;10.40;;;;;;;11.07;68.28;99037.56;4204841;28;20241;-66
2022/04/24 06:28:02;;;;;;;18.93;10.60;;;;;;;10.60;71.05;99031.53;4199140;28;26211;-68
2022/04/24 06:30:30;;;;;;;16.33;9.40;;;;;;;10.92;68.32;99033.06;4187814;28;20229;-70
2022/04/24 06:32:58;;;;;;;17.00;9.23;;;;;;;13.73;60.87;99053.47;4182508;28;21806;-68
2022/04/24 06:35:24;;;;;;;12.93;7.63;;;;;;;15.39;54.53;99063.53;4216808;28;20274;-67
2022/04/24 06:37:55;;;;;;;18.83;9.00;;;;;;;15.03;51.51;99056.78;4208411;28;20374;-68
2022/04/24 06:40:24;;;;;;;17.53;8.57;;;;;;;14.86;52.53;99053.69;4183198;28;20230;-67
2022/04/24 06:43:16;;;;;;;13.73;8.10;;;;;;;13.40;57.08;99054.13;4186327;28;20327;-68
2022/04/24 06:45:43;;;;;;;13.53;8.03;;;;;;;12.50;59.54;99050.34;4192030;28;22987;-66
2022/04/24 06:48:15;;;;;;;13.10;8.40;;;;;;;12.00;62.75;99042.25;4216581;28;20347;-70
2022/04/24 06:50:43;;;;;;;16.43;9.53;;;;;;;10.82;67.25;99037.81;4180003;28;20232;-69
2022/04/24 06:53:11;;;;;;;14.60;9.30;;;;;;;10.67;68.78;99039.63;4190561;28;20276;-68
2022/04/24 06:55:40;;;;;;;14.47;8.57;;;;;;;10.28;71.94;99032.59;4178005;28;21346;-68
2022/04/24 06:58:08;;;;;;;14.10;9.07;;;;;;;10.47;72.37;99029.47;4193251;28;23628;-69
2022/04/24 07:00:38;;;;;;;19.60;10.20;;;;;;;10.48;71.46;99036.44;4195750;28;21005;-68
2022/04/24 07:03:26;;;;;;;17.70;10.50;;;;;;;10.63;71.37;99049.81;4193775;28;20326;-68
2022/04/24 07:05:53;;;;;;;16.47;9.93;;;;;;;10.60;72.31;99052.78;4202212;28;20233;-68
2022/04/24 07:08:21;;;;;;;18.90;11.10;;;;;;;10.92;70.90;99053.53;4184683;28;20232;-68
2022/04/24 07:10:48;;;;;;;18.43;10.70;;;;;;;11.48;69.94;99063.75;4187986;28;20333;-69
2022/04/24 07:13:15;;;;;;;18.07;9.03;;;;;;;13.04;62.93;99070.28;4195415;28;20229;-67
2022/04/24 07:15:41;;;;;;;14.13;8.43;;;;;;;13.20;61.16;99071.84;4218662;28;21805;-67
2022/04/24 07:18:10;;;;;;;13.37;8.67;;;;;;;14.06;57.64;99074.16;4216262;28;25117;-68
2022/04/24 07:20:37;;;;;;;13.87;8.37;;;;;;;14.05;56.17;99075.19;4191722;28;20747;-67
2022/04/24 07:23:07;;;;;;;11.40;7.03;;;;;;;15.35;53.80;99073.00;4192505;28;20304;-67
2022/04/24 07:25:40;;;;;;;13.47;8.67;;;;;;;18.19;44.24;99088.25;4193693;28;20326;-67
2022/04/24 07:28:08;;;;;;;12.83;7.37;;;;;;;19.69;40.10;99100.63;4231402;28;22107;-67
2022/04/24 07:30:34;;;;;;;10.40;7.33;;;;;;;19.13;39.26;99094.75;4192143;28;20236;-67
2022/04/24 07:33:01;;;;;;;9.23;6.43;;;;;;;19.80;38.38;99099.75;4174250;28;21492;-67
2022/04/24 07:35:32;;;;;;;11.50;6.20;;;;;;;20.39;37.64;99106.84;4197351;28;23055;-68
2022/04/24 07:37:59;;;;;;;9.93;6.33;;;;;;;22.69;33.15;99112.88;4211602;28;20407;-67
2022/04/24 07:40:27;;;;;;;10.67;7.03;;;;;;;21.77;32.72;99100.13;4188783;28;25599;-67
2022/04/24 07:42:56;;;;;;;10.50;6.70;;;;;;;22.98;30.92;99107.13;4181125;28;20237;-68
2022/04/24 07:45:34;;;;;;;12.40;7.17;;;;;;;20.50;34.45;99092.47;4182713;28;20237;-68
2022/04/24 07:48:02;;;;;;;11.60;7.17;;;;;;;20.64;35.01;99090.31;4183271;28;20277;-70
2022/04/24 07:50:32;;;;;;;11.43;6.90;;;;;;;21.16;33.49;99089.25;4184069;28;20229;-69
2022/04/24 07:52:59;;;;;;;14.93;9.03;;;;;;;20.77;34.64;99090.00;4173177;28;22889;-69
2022/04/24 07:55:25;;;;;;;10.70;7.23;;;;;;;19.00;38.32;99072.56;4200330;28;21621;-69
2022/04/24 07:57:54;;;;;;;11.97;7.77;;;;;;;18.34;39.39;99067.16;4219776;28;22490;-68
2022/04/24 08:00:22;;;;;;;9.50;6.07;;;;;;;17.82;41.60;99061.44;4222171;28;20441;-70
2022/04/24 08:02:50;;;;;;;12.37;6.40;;;;;;;17.21;42.65;99065.78;4218831;28;20272;-67
2022/04/24 08:05:21;;;;;;;9.50;6.27;;;;;;;16.85;44.20;99070.03;4207549;28;20230;-68
2022/04/24 08:07:48;;;;;;;12.27;6.47;;;;;;;16.87;43.26;99070.63;4204805;28;20270;-71
2022/04/24 08:10:15;;;;;;;10.43;6.33;;;;;;;16.57;44.12;99067.72;4236368;28;20238;-70
2022/04/24 08:12:42;;;;;;;9.37;5.83;;;;;;;15.63;45.78;99065.50;4187824;28;20803;-68
2022/04/24 08:15:09;;;;;;;9.40;6.10;;;;;;;15.19;48.75;99059.03;4200413;28;21705;-69
2022/04/24 08:17:35;;;;;;;9.37;6.23;;;;;;;15.44;47.69;99063.69;4253553;28;20248;-69
2022/04/24 08:20:03;;;;;;;9.03;5.80;;;;;;;15.46;47.92;99053.59;4197217;28;20350;-69
2022/04/24 08:22:41;;;;;;;10.40;5.57;;;;;;;15.15;49.11;99052.44;4205867;28;22697;-68
2022/04/24 08:25:08;;;;;;;11.53;6.53;;;;;;;14.48;49.83;99045.41;4244683;28;20240;-68
2022/04/24 08:27:36;;;;;;;11.83;7.37;;;;;;;14.31;51.63;99040.44;4206070;28;20236;-69
2022/04/24 08:30:08;;;;;;;12.70;6.67;;;;;;;14.74;50.75;99044.63;4216173;28;20243;-68
2022/04/24 08:32:36;;;;;;;14.70;7.77;;;;;;;14.87;48.96;99041.97;4187512;28;20257;-68
2022/04/24 08:35:04;;;;;;;13.47;6.73;;;;;;;14.66;50.02;99044.84;4222983;28;20588;-64
2022/04/24 08:37:31;;;;;;;12.17;6.37;;;;;;;14.14;51.21;99040.03;4221065;28;20237;-67
2022/04/24 08:39:58;;;;;;;11.40;6.40;;;;;;;13.98;51.63;99034.19;4227974;28;20225;-71
2022/04/24 08:42:26;;;;;;;11.83;5.97;;;;;;;13.88;52.25;99024.72;4254586;28;20248;-68
2022/04/24 08:44:57;;;;;;;10.17;5.40;;;;;;;13.61;53.97;99025.66;4215753;28;20225;-67
2022/04/24 08:47:25;;;;;;;6.43;4.47;;;;;;;13.79;52.66;99017.91;4218118;28;20348;-67
2022/04/24 08:49:59;;;;;;;7.33;4.93;;;;;;;14.53;51.44;99016.19;4259301;28;20241;-70
2022/04/24 08:52:27;;;;;;;9.40;4.90;;;;;;;15.22;50.12;99027.47;4238980;28;22706;-70
2022/04/24 08:54:57;;;;;;;9.77;5.27;;;;;;;15.02;48.77;99027.50;4217655;28;22508;-76
2022/04/24 08:57:29;;;;;;;8.70;5.03;;;;;;;14.50;50.29;99022.75;4209207;28;20230;-70
2022/04/24 08:59:58;;;;;;;9.23;6.00;;;;;;;14.59;50.79;99025.28;4223672;28;20235;-69
2022/04/24 09:02:44;;;;;;;8.20;5.73;;;;;;;14.21;50.98;99013.28;4237928;28;21371;-68
2022/04/24 09:05:12;;;;;;;9.27;6.20;;;;;;;14.21;51.49;99015.97;4180032;28;23306;-72
2022/04/24 09:07:39;;;;;;;9.17;5.97;;;;;;;14.34;50.82;99017.81;4212304;28;20273;-69
2022/04/24 09:10:22;;;;;;;9.77;5.70;;;;;;;14.24;51.01;99012.88;4229439;28;20435;-65
2022/04/24 09:12:52;;;;;;;7.17;5.00;;;;;;;13.84;53.04;99002.09;4245403;28;20240;-71
2022/04/24 09:15:18;;;;;;;8.27;5.00;;;;;;;14.51;50.87;99004.84;4201702;28;20229;-67
2022/04/24 09:17:45;;;;;;;8.30;4.80;;;;;;;14.54;52.38;99017.88;4204950;28;20240;-65
2022/04/24 09:20:19;;;;;;;7.17;5.13;;;;;;;14.44;50.16;99022.75;4227016;28;20626;-66
2022/04/24 09:22:46;;;;;;;9.53;5.57;;;;;;;14.39;51.23;99019.88;4234809;28;21813;-65
2022/04/24 09:25:13;;;;;;;8.00;4.93;;;;;;;14.86;50.04;99023.41;4212948;28;23332;-71
2022/04/24 09:27:40;;;;;;;6.07;4.43;;;;;;;14.49;49.56;99025.63;4190385;28;22138;-67
2022/04/24 09:30:12;;;;;;;8.17;4.60;;;;;;;13.81;50.52;99015.00;4209073;28;20991;-66
2022/04/24 09:32:59;;;;;;;5.03;3.93;;;;;;;13.58;52.98;99012.66;4229309;28;20230;-69
2022/04/24 09:35:31;;;;;;;8.07;3.73;;;;;;;14.08;51.34;99008.72;4201701;28;25388;-65
2022/04/24 09:38:24;;;;;;;7.20;4.57;;;;;;;14.48;49.97;99008.75;4245687;28;20873;-66
2022/04/24 09:40:51;;;;;;;5.20;3.87;;;;;;;13.90;50.27;99005.78;4250105;28;23673;-66
2022/04/24 09:43:19;;;;;;;5.87;3.80;;;;;;;14.06;50.67;99010.75;4247948;28;20317;-70
2022/04/24 09:45:49;;;;;;;4.93;3.50;;;;;;;14.19;50.27;99015.34;4215121;28;21280;-70
2022/04/24 09:48:19;;;;;;;6.60;3.80;;;;;;;14.22;50.35;99019.44;4225399;28;21952;-73
2022/04/24 09:50:48;;;;;;;4.60;3.50;;;;;;;14.13;49.93;99022.31;4219028;28;20233;-72
2022/04/24 09:53:20;;;;;;;5.30;3.40;;;;;;;14.32;49.00;99028.72;4212553;28;20237;-71
2022/04/24 09:55:51;;;;;;;5.00;3.30;;;;;;;13.98;49.64;99028.84;4206916;28;20290;-70
2022/04/24 09:58:21;;;;;;;6.63;3.60;;;;;;;13.15;52.42;99018.19;4217151;28;20466;-71
2022/04/24 10:00:47;;;;;;;5.37;4.07;;;;;;;13.10;53.07;99026.78;4215583;28;20335;-68
2022/04/24 10:03:16;;;;;;;6.87;3.90;;;;;;;13.23;53.48;99031.41;4204189;28;20234;-67
2022/04/24 10:05:45;;;;;;;4.87;4.03;;;;;;;13.48;52.61;99037.91;4195920;28;20244;-72
2022/04/24 10:08:12;;;;;;;5.60;3.67;;;;;;;13.74;51.56;99031.03;4214373;28;20244;-73
2022/04/24 10:10:39;;;;;;;7.07;3.73;;;;;;;13.71;51.48;99040.28;4212327;28;25466;-76
2022/04/24 10:13:10;;;;;;;9.63;4.40;;;;;;;13.27;52.42;99030.84;4204933;28;20287;-73
2022/04/24 10:15:43;;;;;;;7.27;4.20;;;;;;;13.48;53.77;99031.75;4202683;28;20243;-76
2022/04/24 10:18:35;;;;;;;6.50;4.53;;;;;;;14.14;51.53;99037.34;4192745;28;21480;-73
2022/04/24 10:21:21;;;;;;;5.30;3.57;;;;;;;14.13;49.38;99037.53;4219975;28;21940;-73
2022/04/24 10:23:49;;;;;;;4.23;2.83;;;;;;;14.06;48.58;99036.69;4195369;28;20228;-74
2022/04/24 10:26:18;;;;;;;4.17;2.73;;;;;;;14.07;49.25;99041.00;4193131;28;20233;-72
2022/04/24 10:28:46;;;;;;;4.57;3.37;;;;;;;14.03;50.65;99034.44;4211096;28;21629;-72
2022/04/24 10:31:15;;;;;;;3.97;2.90;;;;;;;14.27;50.57;99033.03;4220166;28;20259;-75
2022/04/24 10:33:51;;;;;;;3.90;2.83;;;;;;;14.54;48.88;99034.75;4195645;28;20397;-75
2022/04/24 10:36:18;;;;;;;3.90;3.03;;;;;;;14.33;48.10;99034.91;4213570;28;23280;-77
2022/04/24 10:38:50;;;;;;;6.30;2.87;;;;;;;14.45;48.71;99035.13;4190180;28;21265;-76
2022/04/24 10:41:30;;;;;;;3.63;2.70;;;;;;;14.74;47.78;99032.06;4209399;28;22180;-70
2022/04/24 10:44:15;;;;;;;3.63;2.87;;;;;;;14.82;48.16;99025.69;4202913;28;20294;-74
2022/04/24 10:46:42;;;;;;;4.90;2.90;;;;;;;15.09;47.13;99031.00;4179409;28;21411;-72
2022/04/24 10:49:13;;;;;;;6.13;3.20;;;;;;;15.17;46.66;99034.28;4242125;28;22012;-73
2022/04/24 10:51:43;;;;;;;3.90;2.80;;;;;;;14.98;45.71;99030.63;4271763;28;20239;-72
2022/04/24 10:54:13;;;;;;;6.53;3.87;;;;;;;14.98;44.97;99029.78;4235192;28;20241;-75
2022/04/24 10:56:51;;;;;;;5.90;3.50;;;;;;;14.88;45.90;99024.03;4213755;28;22371;-74
2022/04/24 10:59:19;;;;;;;3.87;2.87;;;;;;;14.98;45.96;99025.25;4271786;28;20242;-74
2022/04/24 11:01:51;;;;;;;5.60;2.57;;;;;;;15.32;45.41;99030.53;4216043;28;20295;-72
2022/04/24 11:04:19;;;;;;;4.57;2.80;;;;;;;14.98;45.06;99022.59;4232787;28;20320;-73
2022/04/24 11:06:57;;;;;;;5.17;2.77;;;;;;;14.22;47.01;99025.63;4225112;28;20243;-71
2022/04/24 11:09:29;;;;;;;3.53;2.43;;;;;;;14.89;45.92;99028.34;4219630;28;20225;-72
2022/04/24 11:12:03;;;;;;;8.80;3.70;;;;;;;14.78;46.04;99016.41;4216808;28;22031;-75
2022/04/24 11:14:30;;;;;;;4.67;3.40;;;;;;;14.63;46.81;99015.78;4233435;28;20240;-74
2022/04/24 11:16:59;;;;;;;3.67;2.90;;;;;;;14.98;46.86;99019.06;4209378;28;20230;-73
2022/04/24 11:19:31;;;;;;;3.53;2.80;;;;;;;15.35;44.83;99016.72;4204199;28;21819;-71
2022/04/24 11:22:02;;;;;;;6.67;3.50;;;;;;;15.31;44.92;99015.47;4233696;28;20658;-75
2022/04/24 11:24:34;;;;;;;6.40;2.90;;;;;;;15.39;44.41;99015.28;4226989;28;21729;-74
2022/04/24 11:27:08;;;;;;;5.40;3.23;;;;;;;15.57;43.91;99009.22;4208452;28;20247;-74
2022/04/24 11:29:35;;;;;;;4.87;2.83;;;;;;;15.55;44.11;99013.97;4209304;28;20506;-73
2022/04/24 11:32:07;;;;;;;4.73;3.07;;;;;;;15.80;44.12;99016.78;4237469;28;25513;-76